FAFR weather

Fraserburg Airport
Fraseburg, Northern Cape, South Africa

Public forecast

Using degrees Celsius for public forecast. Weather courtesy of forecast.io.

Closest aviation weather report (METAR) to Fraserburg Airport

Report is more than 6 hours old.

Closest report is Calvinia Airport, 94.4 nm (174.8 km) WNW. Retrieved 2019/10/23 08:55 UTC (10 hours ago):

FACV 230855Z 23009KT 9999 FEW035 15/02 Q1016

Closest aviation forecast (TAF) to Fraserburg Airport

Closest forecast is George Airport, 132.0 nm (244.4 km) SSE. Retrieved 2019/10/23 18:00 UTC (1 hour ago):

TAF FAGG 231600Z 2318/2418 22010KT 9999 SCT015 BKN025 TX23/2412Z TN13/2404Z PROB30 TEMPO 2318/2320 -RA BKN015 FM240300 05005KT CAVOK BECMG 2406/2408 12010KT